Time;durP1;ratioP1;P1;durP2;ratioP2;P2;SDS_P1;SDS_P2;PMS_P1;PMS_P2;Temp;Humidity;BMP_temperature;BMP_pressure;BME280_temperature;BME280_humidity;BME280_pressure;Samples;Min_cycle;Max_cycle;Signal;HPM_P1;HPM_P2
2021/12/07 00:02:10;;;;;;;4.45;3.45;;;14.10;62.20;;;;;;5032543;28;20136;-74
2021/12/07 00:04:37;;;;;;;4.53;3.50;;;14.60;62.70;;;;;;5032559;28;20409;-74
2021/12/07 00:07:04;;;;;;;4.60;3.30;;;14.30;62.60;;;;;;5033162;28;20091;-74
2021/12/07 00:09:31;;;;;;;4.10;3.03;;;14.20;62.70;;;;;;5032527;28;20137;-74
2021/12/07 00:12:03;;;;;;;5.03;3.30;;;14.30;62.70;;;;;;5032222;28;20089;-74
2021/12/07 00:14:37;;;;;;;4.32;3.28;;;14.20;62.60;;;;;;5032226;28;20057;-74
2021/12/07 00:17:04;;;;;;;4.07;3.33;;;14.30;62.80;;;;;;5031897;28;20061;-74
2021/12/07 00:19:31;;;;;;;4.13;3.03;;;;;;;;;;5032295;28;20391;-74
2021/12/07 00:21:58;;;;;;;4.53;3.33;;;14.20;62.60;;;;;;5032279;28;20145;-74
2021/12/07 00:24:26;;;;;;;4.03;3.33;;;14.20;62.80;;;;;;5032010;28;20076;-73
2021/12/07 00:26:52;;;;;;;4.95;3.30;;;13.80;62.50;;;;;;5031572;28;20538;-74
2021/12/07 00:29:19;;;;;;;4.32;3.28;;;14.20;62.90;;;;;;5032067;28;20140;-73
2021/12/07 00:31:53;;;;;;;3.67;3.10;;;14.00;62.80;;;;;;5048770;28;20081;-72
2021/12/07 00:34:36;;;;;;;3.75;3.30;;;14.10;62.70;;;;;;5031532;28;20046;-72
2021/12/07 00:37:03;;;;;;;3.83;3.40;;;13.90;56.50;;;;;;5031504;28;20099;-72
2021/12/07 00:39:31;;;;;;;3.42;2.80;;;;;;;;;;5032872;28;20128;-72
2021/12/07 00:41:58;;;;;;;3.78;2.95;;;;;;;;;;5031849;28;20140;-72
2021/12/07 00:44:25;;;;;;;4.10;3.05;;;13.90;62.70;;;;;;5032524;28;20477;-72
2021/12/07 00:46:53;;;;;;;3.30;3.00;;;14.10;59.60;;;;;;5031603;28;20387;-72
2021/12/07 00:49:20;;;;;;;3.20;2.70;;;14.10;60.10;;;;;;5031385;28;20081;-72
2021/12/07 00:51:47;;;;;;;3.78;2.97;;;14.10;62.90;;;;;;5032720;28;20047;-72
2021/12/07 00:54:14;;;;;;;3.45;2.80;;;13.90;62.80;;;;;;5032592;28;20128;-72
2021/12/07 00:56:40;;;;;;;4.30;2.88;;;13.90;62.70;;;;;;5032549;28;20221;-72
2021/12/07 00:59:07;;;;;;;4.45;3.10;;;13.80;63.00;;;;;;5032631;28;20561;-72
2021/12/07 01:01:34;;;;;;;4.00;3.03;;;13.90;56.40;;;;;;5031954;28;20081;-72
2021/12/07 01:04:02;;;;;;;3.38;3.08;;;13.90;62.90;;;;;;5031473;28;20136;-72
2021/12/07 01:06:32;;;;;;;3.88;3.13;;;14.00;63.00;;;;;;5032432;28;20468;-72
2021/12/07 01:09:17;;;;;;;4.13;3.00;;;13.80;63.20;;;;;;5031185;28;20053;-72
2021/12/07 01:25:34;;;;;;;3.50;2.70;;;;;;;;;;5030663;28;20053;-72
2021/12/07 01:28:07;;;;;;;3.75;3.05;;;13.90;63.10;;;;;;5030809;28;20065;-72
2021/12/07 01:30:40;;;;;;;3.95;3.15;;;13.70;63.10;;;;;;5032084;28;20045;-72
2021/12/07 01:33:32;;;;;;;3.40;2.88;;;;;;;;;;5031833;28;20068;-71
2021/12/07 01:42:45;;;;;;;3.50;3.03;;;13.70;62.90;;;;;;5012173;28;20042;-71
2021/12/07 01:44:43;;;;;;;3.72;3.05;;;13.60;63.10;;;;;;5012111;28;20045;-71
2021/12/07 01:50:25;;;;;;;3.60;2.90;;;13.70;63.10;;;;;;5012972;28;20041;-72
2021/12/07 01:53:08;;;;;;;3.20;2.90;;;13.80;63.10;;;;;;5030647;28;20505;-72
2021/12/07 02:01:04;;;;;;;3.97;3.00;;;13.70;63.00;;;;;;5031555;28;20046;-71
2021/12/07 02:03:31;;;;;;;3.35;2.65;;;13.60;62.90;;;;;;5030678;28;20077;-71
2021/12/07 02:05:58;;;;;;;4.43;3.00;;;;;;;;;;5031460;28;20045;-72
2021/12/07 02:08:26;;;;;;;3.55;2.90;;;13.70;63.20;;;;;;5031381;28;20118;-72
2021/12/07 02:10:57;;;;;;;3.75;2.95;;;13.60;63.10;;;;;;5030527;28;20076;-72
2021/12/07 02:14:14;;;;;;;4.60;2.90;;;;;;;;;;5031708;28;20055;-72
2021/12/07 02:16:21;;;;;;;3.45;2.70;;;13.70;60.10;;;;;;5031187;28;20049;-72
2021/12/07 02:18:48;;;;;;;3.88;3.00;;;13.30;63.10;;;;;;5030258;28;20057;-72
2021/12/07 02:21:20;;;;;;;3.10;2.70;;;13.80;63.00;;;;;;5031833;28;20128;-71
2021/12/07 02:23:47;;;;;;;3.17;2.60;;;13.60;63.00;;;;;;5029854;28;20049;-71
2021/12/07 02:26:14;;;;;;;3.25;2.67;;;;;;;;;;5030184;28;20111;-72
2021/12/07 02:28:41;;;;;;;3.53;2.83;;;;;;;;;;5031467;28;20132;-71
2021/12/07 02:31:08;;;;;;;3.28;2.67;;;13.60;63.40;;;;;;5031350;28;20080;-75
2021/12/07 02:33:35;;;;;;;3.20;2.63;;;13.70;63.10;;;;;;5031236;28;20458;-71
2021/12/07 02:36:03;;;;;;;3.25;2.65;;;;;;;;;;5034331;28;20129;-72
2021/12/07 02:38:31;;;;;;;3.85;3.10;;;13.50;63.20;;;;;;5030864;28;20158;-71
2021/12/07 02:40:57;;;;;;;3.90;3.00;;;13.70;63.30;;;;;;5030276;28;20057;-71
2021/12/07 02:43:24;;;;;;;3.50;2.80;;;;;;;;;;5030039;28;20137;-72
2021/12/07 02:45:52;;;;;;;3.28;2.88;;;13.60;63.00;;;;;;5048417;28;20132;-73
2021/12/07 02:48:20;;;;;;;3.17;2.70;;;13.50;61.20;;;;;;5032613;28;20153;-73
2021/12/07 02:50:47;;;;;;;2.88;2.50;;;13.80;63.00;;;;;;5029828;28;20089;-73
2021/12/07 02:53:14;;;;;;;3.08;2.53;;;13.40;60.80;;;;;;5046793;28;20553;-72
2021/12/07 02:55:42;;;;;;;3.28;2.58;;;13.80;63.30;;;;;;5029696;28;20132;-75
2021/12/07 02:58:09;;;;;;;3.35;2.55;;;13.70;63.10;;;;;;5031529;28;20104;-73
2021/12/07 03:00:43;;;;;;;3.08;2.60;;;13.90;63.20;;;;;;5031073;28;20132;-73
2021/12/07 03:03:12;;;;;;;3.15;2.55;;;13.70;63.20;;;;;;5033780;28;20069;-73
2021/12/07 03:05:45;;;;;;;3.17;2.70;;;13.60;63.10;;;;;;5034930;28;20074;-73
2021/12/07 03:08:43;;;;;;;3.58;2.72;;;13.70;58.20;;;;;;5033406;28;20068;-73
2021/12/07 03:27:41;;;;;;;3.07;2.60;;;13.70;56.20;;;;;;5034226;28;20045;-72
2021/12/07 03:30:08;;;;;;;3.15;2.45;;;13.50;62.90;;;;;;5034272;28;20049;-72
2021/12/07 03:32:34;;;;;;;3.30;2.80;;;13.80;62.80;;;;;;5033918;28;20557;-72
2021/12/07 03:35:01;;;;;;;3.67;2.70;;;13.90;62.90;;;;;;5034413;28;20076;-72
2021/12/07 03:37:28;;;;;;;4.03;2.65;;;13.80;63.00;;;;;;5033769;28;20136;-72
2021/12/07 03:39:55;;;;;;;2.97;2.55;;;13.90;62.80;;;;;;5033967;28;20132;-72
2021/12/07 03:42:22;;;;;;;3.17;2.60;;;13.80;62.80;;;;;;5034096;28;20161;-73
2021/12/07 03:44:50;;;;;;;3.38;2.75;;;14.00;62.80;;;;;;5034259;28;20129;-73
2021/12/07 03:47:16;;;;;;;3.38;2.60;;;13.90;62.20;;;;;;5034144;28;20484;-72
2021/12/07 03:49:43;;;;;;;2.45;2.10;;;13.90;62.70;;;;;;5032829;28;20132;-72
2021/12/07 03:52:10;;;;;;;2.90;2.22;;;;;;;;;;5034098;28;20133;-74
2021/12/07 03:54:37;;;;;;;2.78;2.30;;;14.00;62.60;;;;;;5049280;28;20129;-73
2021/12/07 03:57:04;;;;;;;3.10;2.55;;;14.00;62.80;;;;;;5032220;28;20136;-72
2021/12/07 03:59:31;;;;;;;2.85;2.10;;;14.00;62.80;;;;;;5040616;28;20132;-73
2021/12/07 04:01:59;;;;;;;2.80;2.22;;;14.00;62.50;;;;;;5042528;28;20132;-73
2021/12/07 04:04:27;;;;;;;2.55;2.00;;;14.10;62.70;;;;;;5043002;28;20072;-73
2021/12/07 04:06:54;;;;;;;2.63;2.10;;;13.60;62.50;;;;;;5042130;28;20049;-72
2021/12/07 04:09:21;;;;;;;2.80;2.30;;;;;;;;;;5042330;28;20140;-73
2021/12/07 04:11:48;;;;;;;3.42;2.20;;;14.00;62.30;;;;;;5041988;28;20141;-73
2021/12/07 04:14:16;;;;;;;2.30;2.00;;;;;;;;;;5040834;28;20049;-72
2021/12/07 04:16:42;;;;;;;2.33;2.10;;;13.40;62.10;;;;;;5037492;28;20083;-73
2021/12/07 04:19:10;;;;;;;2.55;2.10;;;14.20;59.40;;;;;;5047105;28;20131;-73
2021/12/07 04:21:37;;;;;;;3.15;2.10;;;14.20;57.30;;;;;;5052131;28;20461;-73
2021/12/07 04:24:04;;;;;;;2.40;2.00;;;13.80;62.20;;;;;;5052367;28;20140;-72
2021/12/07 04:26:32;;;;;;;2.90;1.92;;;14.10;55.60;;;;;;5052287;28;20088;-73
2021/12/07 04:28:58;;;;;;;2.47;2.10;;;14.30;62.30;;;;;;5068452;28;20060;-73
2021/12/07 04:31:25;;;;;;;2.22;1.90;;;14.10;62.00;;;;;;5038462;28;20137;-73
2021/12/07 04:33:52;;;;;;;2.38;1.98;;;13.80;61.90;;;;;;5048948;28;20455;-73
2021/12/07 04:36:20;;;;;;;2.42;1.92;;;14.60;62.30;;;;;;5031975;28;20136;-73
2021/12/07 04:38:46;;;;;;;1.95;1.70;;;13.90;61.90;;;;;;5031934;28;20132;-73
2021/12/07 04:41:14;;;;;;;2.65;1.92;;;;;;;;;;5031967;28;20478;-74
2021/12/07 04:43:42;;;;;;;2.40;1.90;;;;;;;;;;5032255;28;20081;-72
2021/12/07 04:46:14;;;;;;;2.10;1.90;;;14.20;61.90;;;;;;5032651;28;20056;-73
2021/12/07 04:59:38;;;;;;;2.25;1.95;;;14.10;62.20;;;;;;5033070;28;20049;-73
2021/12/07 05:02:05;;;;;;;2.42;2.00;;;14.10;62.10;;;;;;5050752;28;20132;-71
2021/12/07 05:04:34;;;;;;;2.50;2.00;;;14.10;62.30;;;;;;5034074;28;20132;-71
2021/12/07 05:07:08;;;;;;;2.42;1.90;;;14.10;62.20;;;;;;5031978;28;20057;-71
2021/12/07 05:10:04;;;;;;;2.30;2.10;;;14.10;62.40;;;;;;5031344;28;20085;-71
2021/12/07 05:12:33;;;;;;;2.88;2.10;;;14.00;62.30;;;;;;5030651;28;20111;-71
2021/12/07 05:15:06;;;;;;;2.00;1.80;;;13.90;62.30;;;;;;5030479;28;20119;-71
2021/12/07 05:17:57;;;;;;;2.40;2.10;;;14.00;62.20;;;;;;5031105;28;20537;-72
2021/12/07 05:39:45;;;;;;;4.30;2.10;;;14.00;62.30;;;;;;5030474;28;20053;-71
2021/12/07 05:42:12;;;;;;;2.67;2.20;;;13.90;62.20;;;;;;5032027;28;20486;-71
2021/12/07 05:44:40;;;;;;;2.60;2.30;;;14.00;62.40;;;;;;5030601;28;20136;-71
2021/12/07 05:47:07;;;;;;;2.95;2.40;;;13.90;62.30;;;;;;5030393;28;20137;-71
2021/12/07 05:49:34;;;;;;;2.60;1.92;;;14.00;62.10;;;;;;5030796;28;20490;-71
2021/12/07 05:52:01;;;;;;;3.63;2.72;;;;;;;;;;5032024;28;20132;-72
2021/12/07 05:54:28;;;;;;;2.35;1.92;;;13.90;62.10;;;;;;5030416;28;20076;-71
2021/12/07 05:56:56;;;;;;;2.40;2.00;;;13.40;61.80;;;;;;5030592;28;20140;-71
2021/12/07 05:59:23;;;;;;;2.67;2.10;;;;;;;;;;5030445;28;20057;-71
2021/12/07 06:01:50;;;;;;;2.85;2.20;;;13.90;61.90;;;;;;5031524;28;20546;-71
2021/12/07 06:04:17;;;;;;;2.58;2.10;;;14.00;62.00;;;;;;5030680;28;20136;-71
2021/12/07 06:06:43;;;;;;;2.50;2.00;;;14.10;62.10;;;;;;5031154;28;20068;-72
2021/12/07 06:09:10;;;;;;;2.40;1.98;;;14.20;60.90;;;;;;5030442;28;20049;-71
2021/12/07 06:11:37;;;;;;;2.22;2.00;;;14.10;61.90;;;;;;5031756;28;20525;-72
2021/12/07 06:14:05;;;;;;;2.47;2.03;;;14.10;61.90;;;;;;5030680;28;20132;-72
2021/12/07 06:16:32;;;;;;;2.40;1.98;;;14.20;62.20;;;;;;5031485;28;20133;-72
2021/12/07 06:18:59;;;;;;;2.45;2.00;;;14.20;61.70;;;;;;5030526;28;20072;-72
2021/12/07 06:21:28;;;;;;;3.28;2.17;;;;;;;;;;5030638;28;20530;-72
2021/12/07 06:23:55;;;;;;;3.92;2.10;;;14.10;61.70;;;;;;5029772;28;20506;-72
2021/12/07 06:26:22;;;;;;;2.38;2.08;;;14.10;61.60;;;;;;5038089;28;20128;-72
2021/12/07 06:28:49;;;;;;;2.47;2.17;;;14.20;61.90;;;;;;5034141;28;20534;-72
2021/12/07 06:31:19;;;;;;;2.30;2.10;;;14.30;61.90;;;;;;5040331;28;20106;-72
2021/12/07 06:33:46;;;;;;;1.80;1.65;;;14.40;61.60;;;;;;5055407;28;20057;-72
2021/12/07 06:36:14;;;;;;;2.55;2.08;;;13.80;61.50;;;;;;5042549;28;20136;-72
2021/12/07 06:38:41;;;;;;;2.60;2.00;;;13.90;61.40;;;;;;5041524;28;20387;-72
2021/12/07 06:41:08;;;;;;;2.20;1.80;;;14.90;61.70;;;;;;5025873;28;20045;-72
2021/12/07 06:43:35;;;;;;;2.80;1.95;;;14.80;61.50;;;;;;5059518;28;20474;-72
2021/12/07 06:46:01;;;;;;;1.95;1.73;;;14.30;61.40;;;;;;5045393;28;20140;-71
2021/12/07 06:48:29;;;;;;;1.85;1.67;;;15.10;61.80;;;;;;5045709;28;20128;-72
2021/12/07 06:50:56;;;;;;;2.90;1.85;;;13.80;61.00;;;;;;5043830;28;20133;-72
2021/12/07 06:53:23;;;;;;;1.80;1.58;;;13.30;61.20;;;;;;5059041;28;20132;-72
2021/12/07 06:55:50;;;;;;;2.28;1.75;;;14.30;61.40;;;;;;5039765;28;20128;-72
2021/12/07 06:58:16;;;;;;;2.22;1.85;;;14.30;61.30;;;;;;5060006;28;20124;-72
2021/12/07 07:00:43;;;;;;;2.10;1.60;;;14.30;61.50;;;;;;5045645;28;20123;-72
2021/12/07 07:03:10;;;;;;;2.03;1.70;;;14.30;61.10;;;;;;5040479;28;20132;-72
2021/12/07 07:05:38;;;;;;;1.95;1.60;;;13.90;61.10;;;;;;5049128;28;20052;-74
2021/12/07 07:08:07;;;;;;;1.95;1.55;;;;;;;;;;5053609;28;20080;-73
2021/12/07 07:10:34;;;;;;;2.33;1.80;;;13.60;60.70;;;;;;5054829;28;20052;-72
2021/12/07 07:13:00;;;;;;;2.38;1.88;;;13.60;61.00;;;;;;5053759;28;20095;-73
2021/12/07 07:15:27;;;;;;;2.05;1.80;;;14.50;61.30;;;;;;5052807;28;20497;-74
2021/12/07 07:17:54;;;;;;;2.33;1.67;;;14.50;61.30;;;;;;5034055;28;20045;-73
2021/12/07 07:20:21;;;;;;;2.22;1.90;;;13.80;60.70;;;;;;5033585;28;20107;-73
2021/12/07 07:22:49;;;;;;;1.90;1.58;;;14.10;60.90;;;;;;5033526;28;20496;-73
2021/12/07 07:25:16;;;;;;;1.90;1.70;;;14.80;61.30;;;;;;5033478;28;20545;-74
2021/12/07 07:27:43;;;;;;;2.10;1.80;;;14.60;61.20;;;;;;5033947;28;20059;-73
2021/12/07 07:30:11;;;;;;;2.17;1.70;;;13.90;60.90;;;;;;5033229;28;20192;-74
2021/12/07 07:32:37;;;;;;;3.58;2.25;;;14.60;61.30;;;;;;5033199;28;20087;-74
2021/12/07 07:35:05;;;;;;;4.38;2.30;;;14.70;61.10;;;;;;5033321;28;20053;-74
2021/12/07 07:37:32;;;;;;;2.50;1.90;;;;;;;;;;5032912;28;20144;-75
2021/12/07 07:40:00;;;;;;;2.35;1.80;;;14.40;61.00;;;;;;5034431;28;20092;-74
2021/12/07 07:42:27;;;;;;;2.70;1.90;;;14.60;61.30;;;;;;5032851;28;20565;-74
2021/12/07 07:44:54;;;;;;;2.65;1.55;;;;;;;;;;5033196;28;20152;-74
2021/12/07 07:47:21;;;;;;;2.22;1.90;;;14.50;61.30;;;;;;5034343;28;20087;-74
2021/12/07 07:49:47;;;;;;;2.70;1.50;;;14.90;61.50;;;;;;5033053;28;20041;-74
2021/12/07 07:52:14;;;;;;;2.33;1.63;;;13.90;60.70;;;;;;5034484;28;20124;-75
2021/12/07 07:54:41;;;;;;;5.55;2.40;;;14.20;61.20;;;;;;5032378;28;20143;-74
2021/12/07 07:57:09;;;;;;;2.10;1.70;;;14.60;61.40;;;;;;5032055;28;20139;-72
2021/12/07 07:59:38;;;;;;;2.30;1.80;;;15.40;61.90;;;;;;5032929;28;20136;-73
2021/12/07 08:02:05;;;;;;;2.22;1.60;;;14.00;61.00;;;;;;5032035;28;20085;-73
2021/12/07 08:04:32;;;;;;;2.10;1.75;;;14.60;61.20;;;;;;5032679;28;20562;-73
2021/12/07 08:06:59;;;;;;;2.05;1.58;;;14.10;61.10;;;;;;5032470;28;20132;-73
2021/12/07 08:09:26;;;;;;;2.63;1.75;;;14.50;61.30;;;;;;5032617;28;20474;-73
2021/12/07 08:11:52;;;;;;;1.90;1.40;;;14.50;61.30;;;;;;5032719;28;20148;-73
2021/12/07 08:14:20;;;;;;;1.98;1.70;;;14.90;61.60;;;;;;5032341;28;20153;-73
2021/12/07 08:16:47;;;;;;;1.92;1.60;;;14.60;61.20;;;;;;5031875;28;20505;-72
2021/12/07 08:19:14;;;;;;;2.35;1.50;;;13.90;60.80;;;;;;5013679;28;20132;-73
2021/12/07 08:21:41;;;;;;;1.60;1.35;;;;;;;;;;5025219;28;20056;-74
2021/12/07 08:24:08;;;;;;;1.83;1.50;;;;;;;;;;5046415;28;20080;-74
2021/12/07 08:26:35;;;;;;;1.45;1.30;;;14.60;61.10;;;;;;5028540;28;20081;-74
2021/12/07 08:29:02;;;;;;;2.05;1.50;;;;;;;;;;5054954;28;20541;-73
2021/12/07 08:31:30;;;;;;;2.40;1.30;;;14.40;61.10;;;;;;5055050;28;20124;-72
2021/12/07 08:33:57;;;;;;;1.52;1.38;;;15.50;61.80;;;;;;5039618;28;20120;-73
2021/12/07 08:36:24;;;;;;;3.80;1.42;;;14.70;59.90;;;;;;5040665;28;20043;-73
2021/12/07 08:38:51;;;;;;;2.08;1.50;;;13.90;60.60;;;;;;5043010;28;20585;-73
2021/12/07 08:41:17;;;;;;;1.50;1.20;;;14.70;61.30;;;;;;5037099;28;20141;-72
2021/12/07 08:43:44;;;;;;;1.83;1.50;;;14.70;61.20;;;;;;5031767;28;20132;-72
2021/12/07 08:46:11;;;;;;;3.55;1.70;;;14.70;61.00;;;;;;5031712;28;20053;-71
2021/12/07 08:48:40;;;;;;;1.80;1.35;;;14.70;59.50;;;;;;5032994;28;20468;-72
2021/12/07 08:51:07;;;;;;;2.50;1.40;;;14.70;61.20;;;;;;5032719;28;20493;-72
2021/12/07 08:53:35;;;;;;;2.70;1.38;;;14.40;60.90;;;;;;5031598;28;20053;-73
2021/12/07 09:01:30;;;;;;;1.88;1.35;;;14.70;61.30;;;;;;5031795;28;20053;-71
2021/12/07 09:03:58;;;;;;;1.70;1.30;;;14.70;61.20;;;;;;5031726;28;20132;-71
2021/12/07 09:06:25;;;;;;;2.60;1.30;;;14.70;61.00;;;;;;5031163;28;20136;-71
2021/12/07 09:08:52;;;;;;;2.00;1.50;;;14.70;61.20;;;;;;5033524;28;20052;-72
2021/12/07 09:11:19;;;;;;;1.80;1.27;;;14.60;60.90;;;;;;5040676;28;20493;-72
2021/12/07 09:13:46;;;;;;;2.70;1.50;;;14.70;61.30;;;;;;5040638;28;20056;-72
2021/12/07 09:16:14;;;;;;;3.03;1.50;;;15.30;61.20;;;;;;5036127;28;20132;-72
2021/12/07 09:18:41;;;;;;;1.38;1.27;;;14.70;56.40;;;;;;5030907;28;20133;-72
2021/12/07 09:21:09;;;;;;;2.85;1.50;;;14.70;60.90;;;;;;5031305;28;20140;-72
2021/12/07 09:23:36;;;;;;;2.22;1.48;;;14.70;61.00;;;;;;5031470;28;20140;-72
2021/12/07 09:26:03;;;;;;;1.77;1.17;;;14.80;60.90;;;;;;5030596;28;20142;-72
2021/12/07 09:28:30;;;;;;;2.63;1.50;;;15.40;61.30;;;;;;5031407;28;20565;-72
2021/12/07 09:30:57;;;;;;;1.55;1.30;;;14.70;61.00;;;;;;5030986;28;20143;-72
2021/12/07 09:33:25;;;;;;;1.83;1.40;;;14.70;61.00;;;;;;5031120;28;20144;-72
2021/12/07 09:35:52;;;;;;;1.70;1.30;;;14.70;56.20;;;;;;5032080;28;20124;-72
2021/12/07 09:38:20;;;;;;;2.83;1.30;;;14.70;61.10;;;;;;5031045;28;20057;-72
2021/12/07 09:40:47;;;;;;;1.48;1.23;;;14.70;61.60;;;;;;5030635;28;20140;-72
2021/12/07 09:43:13;;;;;;;1.80;1.30;;;14.20;60.80;;;;;;5031040;28;20516;-71
2021/12/07 09:45:40;;;;;;;1.33;1.20;;;14.30;61.30;;;;;;5046326;28;20561;-72
2021/12/07 09:48:08;;;;;;;2.05;1.30;;;14.60;60.90;;;;;;5050722;28;20079;-73
2021/12/07 09:50:35;;;;;;;1.55;1.20;;;14.60;60.70;;;;;;5050881;28;20528;-72
2021/12/07 09:53:01;;;;;;;2.97;1.33;;;14.90;60.90;;;;;;5050698;28;20132;-75
2021/12/07 09:55:30;;;;;;;1.50;1.20;;;14.80;61.30;;;;;;5050578;28;20091;-74
2021/12/07 09:57:56;;;;;;;2.45;1.52;;;14.60;57.90;;;;;;5043610;28;20076;-76
2021/12/07 10:00:25;;;;;;;1.77;1.20;;;14.80;60.70;;;;;;5030964;28;20301;-75
2021/12/07 10:02:52;;;;;;;1.58;1.20;;;14.30;60.80;;;;;;5030492;28;20053;-75
2021/12/07 10:05:19;;;;;;;1.80;1.30;;;14.90;60.80;;;;;;5030782;28;20092;-75
2021/12/07 10:07:46;;;;;;;2.17;1.45;;;14.30;60.40;;;;;;5030310;28;20051;-76
2021/12/07 10:10:19;;;;;;;3.10;1.35;;;13.90;60.60;;;;;;5031703;28;20084;-75
2021/12/07 10:12:47;;;;;;;1.85;1.30;;;15.00;61.10;;;;;;5035047;28;20060;-75
2021/12/07 10:15:14;;;;;;;1.92;1.20;;;14.40;60.70;;;;;;5034616;28;20139;-75
2021/12/07 10:17:42;;;;;;;1.95;1.30;;;14.70;60.90;;;;;;5033883;28;20503;-75
2021/12/07 10:20:31;;;;;;;1.38;1.13;;;14.90;60.80;;;;;;5033853;28;20072;-73
2021/12/07 10:23:02;;;;;;;1.90;1.30;;;15.30;60.80;;;;;;5041140;28;20063;-75
2021/12/07 10:25:28;;;;;;;2.33;1.30;;;14.90;60.70;;;;;;5050905;28;20064;-75
2021/12/07 10:27:57;;;;;;;1.95;1.30;;;14.80;60.70;;;;;;5039968;28;20128;-75
2021/12/07 10:30:24;;;;;;;2.35;1.33;;;14.90;60.70;;;;;;5041681;28;20049;-75
2021/12/07 10:32:58;;;;;;;1.90;1.20;;;14.80;60.70;;;;;;5039142;28;20498;-73
2021/12/07 10:35:29;;;;;;;2.28;1.40;;;14.90;56.20;;;;;;5037528;28;20089;-74
2021/12/07 10:38:09;;;;;;;1.63;1.20;;;15.50;61.00;;;;;;5034131;28;20049;-73
2021/12/07 10:40:36;;;;;;;1.30;1.00;;;15.00;60.70;;;;;;5034250;28;20139;-74
2021/12/07 10:43:05;;;;;;;1.88;1.30;;;14.20;60.10;;;;;;5034295;28;20135;-74
2021/12/07 10:45:31;;;;;;;2.65;1.30;;;14.90;60.80;;;;;;5034245;28;20140;-74
2021/12/07 10:47:58;;;;;;;2.22;1.13;;;15.80;61.10;;;;;;5034411;28;20133;-74
2021/12/07 10:50:25;;;;;;;2.47;1.42;;;14.00;60.20;;;;;;5034194;28;20057;-74
2021/12/07 10:52:52;;;;;;;2.50;1.40;;;15.00;60.90;;;;;;5035060;28;20053;-74
2021/12/07 10:55:20;;;;;;;4.07;1.60;;;14.90;60.80;;;;;;5034098;28;20144;-75
2021/12/07 10:57:50;;;;;;;3.15;1.42;;;14.40;60.40;;;;;;5033582;28;20052;-74
2021/12/07 11:00:21;;;;;;;1.38;1.08;;;14.70;60.50;;;;;;5033887;28;20061;-75
2021/12/07 11:02:51;;;;;;;2.47;1.02;;;15.00;54.10;;;;;;5033913;28;20459;-73
2021/12/07 11:05:20;;;;;;;2.60;1.30;;;15.50;60.90;;;;;;5033714;28;20084;-75
2021/12/07 11:07:46;;;;;;;2.63;1.33;;;15.60;59.90;;;;;;5033547;28;20046;-74
2021/12/07 11:10:17;;;;;;;3.40;1.50;;;14.60;60.90;;;;;;5033772;28;20538;-75
2021/12/07 11:12:51;;;;;;;3.78;1.50;;;15.10;60.90;;;;;;5033620;28;20115;-74
2021/12/07 11:15:25;;;;;;;3.08;1.40;;;14.70;60.40;;;;;;5033611;28;20056;-74
2021/12/07 11:17:53;;;;;;;2.40;1.35;;;15.00;60.60;;;;;;5034900;28;20403;-74
2021/12/07 11:20:19;;;;;;;2.97;1.55;;;15.20;60.80;;;;;;5033756;28;20490;-74
2021/12/07 11:22:48;;;;;;;1.90;1.40;;;15.30;60.80;;;;;;5033916;28;20076;-73
2021/12/07 11:29:39;;;;;;;2.13;1.20;;;15.20;60.60;;;;;;5033506;28;20140;-75
2021/12/07 11:31:51;;;;;;;2.58;1.50;;;14.20;60.50;;;;;;5003432;28;20050;-74
2021/12/07 11:34:19;;;;;;;2.63;1.13;;;15.30;60.70;;;;;;4975884;28;20054;-75
2021/12/07 11:36:47;;;;;;;2.78;1.20;;;15.20;60.60;;;;;;5003247;28;20049;-74
2021/12/07 11:39:24;;;;;;;1.77;1.10;;;15.20;60.90;;;;;;5033175;28;20136;-75
2021/12/07 11:41:53;;;;;;;2.88;1.27;;;14.10;60.10;;;;;;5033192;28;20115;-74
2021/12/07 11:44:21;;;;;;;3.10;1.40;;;14.40;60.10;;;;;;5033333;28;20469;-75
2021/12/07 11:46:50;;;;;;;2.95;1.20;;;14.50;60.60;;;;;;5032841;28;20140;-75
2021/12/07 11:49:18;;;;;;;2.15;1.33;;;15.20;60.70;;;;;;5032702;28;20465;-74
2021/12/07 11:51:46;;;;;;;2.15;1.30;;;14.40;60.40;;;;;;5032936;28;20132;-75
2021/12/07 11:54:13;;;;;;;4.47;1.70;;;15.10;54.70;;;;;;5033286;28;20136;-74
2021/12/07 11:56:40;;;;;;;2.35;1.30;;;15.00;61.00;;;;;;5032386;28;20056;-74
2021/12/07 11:59:07;;;;;;;2.88;1.30;;;15.30;60.70;;;;;;5033974;28;20103;-73
2021/12/07 12:01:34;;;;;;;2.00;1.48;;;15.60;61.10;;;;;;5032460;28;20091;-74
2021/12/07 12:04:02;;;;;;;1.52;1.20;;;14.90;60.60;;;;;;5032830;28;20140;-74
2021/12/07 12:06:29;;;;;;;2.10;1.30;;;15.50;61.10;;;;;;5032668;28;20137;-74
2021/12/07 12:08:56;;;;;;;2.42;1.20;;;14.20;60.60;;;;;;5032496;28;20136;-74
2021/12/07 12:11:27;;;;;;;2.92;1.30;;;14.90;60.90;;;;;;5032245;28;20145;-74
2021/12/07 12:14:05;;;;;;;1.70;1.30;;;14.90;59.50;;;;;;5032790;28;20064;-74
2021/12/07 12:16:34;;;;;;;4.22;1.40;;;14.80;60.80;;;;;;5032377;28;20157;-74
2021/12/07 12:19:07;;;;;;;2.35;1.40;;;14.80;61.00;;;;;;5032033;28;20473;-74
2021/12/07 12:21:37;;;;;;;2.67;1.20;;;14.90;61.20;;;;;;5032350;28;20137;-74
2021/12/07 12:24:08;;;;;;;2.28;1.20;;;14.80;61.00;;;;;;5032569;28;20136;-74
2021/12/07 12:26:36;;;;;;;1.95;1.15;;;14.30;60.90;;;;;;5032209;28;20084;-74
2021/12/07 12:29:15;;;;;;;2.50;1.20;;;14.60;61.20;;;;;;5032523;28;20140;-74
2021/12/07 12:31:47;;;;;;;3.03;1.20;;;14.70;60.80;;;;;;5031964;28;20136;-74
2021/12/07 12:34:17;;;;;;;2.58;1.20;;;14.30;61.00;;;;;;5031860;28;20554;-74
2021/12/07 12:36:55;;;;;;;2.85;1.20;;;14.10;60.90;;;;;;5031950;28;20132;-74
2021/12/07 12:39:23;;;;;;;2.33;1.23;;;14.70;61.20;;;;;;5032349;28;20558;-74
2021/12/07 12:41:59;;;;;;;2.63;1.35;;;14.70;61.00;;;;;;5031506;28;20144;-73
2021/12/07 12:44:27;;;;;;;3.17;1.30;;;14.70;61.10;;;;;;5032902;28;20522;-73
2021/12/07 12:46:59;;;;;;;2.58;1.25;;;14.60;61.40;;;;;;5031615;28;20080;-74
2021/12/07 12:49:35;;;;;;;3.60;1.10;;;14.60;61.10;;;;;;5032496;28;20152;-75
2021/12/07 12:52:01;;;;;;;4.35;1.20;;;14.30;60.90;;;;;;5031612;28;20136;-74
2021/12/07 12:54:28;;;;;;;3.35;1.20;;;14.40;61.20;;;;;;5031727;28;20566;-74
2021/12/07 12:57:02;;;;;;;2.65;1.27;;;14.40;61.30;;;;;;5030565;28;20056;-74
2021/12/07 12:59:29;;;;;;;3.00;1.40;;;14.60;61.30;;;;;;5030886;28;20075;-74
2021/12/07 13:01:57;;;;;;;2.30;1.27;;;14.50;61.40;;;;;;5031587;28;20058;-75
2021/12/07 13:04:24;;;;;;;3.88;1.52;;;15.20;62.00;;;;;;5031493;28;20144;-75
2021/12/07 13:07:00;;;;;;;5.25;1.30;;;14.50;61.40;;;;;;5030953;28;20445;-75
2021/12/07 13:09:38;;;;;;;2.17;1.10;;;14.40;61.40;;;;;;5031471;28;20132;-75
2021/12/07 13:12:07;;;;;;;2.28;1.40;;;14.40;55.50;;;;;;5031519;28;20053;-75
2021/12/07 13:14:41;;;;;;;3.92;1.42;;;14.40;60.30;;;;;;5031704;28;20488;-75
2021/12/07 13:17:15;;;;;;;2.83;1.50;;;14.30;61.40;;;;;;5030966;28;20088;-75
2021/12/07 13:20:16;;;;;;;2.53;1.40;;;13.90;61.40;;;;;;5031032;28;20045;-75
2021/12/07 13:22:45;;;;;;;3.08;1.58;;;14.00;61.40;;;;;;5031525;28;20056;-75
2021/12/07 13:25:13;;;;;;;2.33;1.30;;;14.30;61.70;;;;;;5031460;28;20136;-75
2021/12/07 13:28:10;;;;;;;3.30;1.48;;;14.00;61.60;;;;;;5031162;28;20132;-74
2021/12/07 13:30:39;;;;;;;3.33;1.25;;;14.20;61.90;;;;;;5032446;28;20576;-75
2021/12/07 13:33:06;;;;;;;3.22;1.30;;;14.40;61.90;;;;;;5030728;28;20476;-75
2021/12/07 13:35:33;;;;;;;2.28;1.27;;;14.00;61.40;;;;;;5030910;28;20145;-75
2021/12/07 13:38:01;;;;;;;2.08;1.17;;;14.30;61.60;;;;;;5030962;28;20145;-74
2021/12/07 13:40:28;;;;;;;3.80;1.50;;;;;;;;;;5029050;28;20148;-74
2021/12/07 13:42:55;;;;;;;2.17;1.23;;;14.40;61.90;;;;;;5031206;28;20128;-75
2021/12/07 13:45:22;;;;;;;3.03;1.38;;;14.30;61.90;;;;;;5030400;28;20144;-73
2021/12/07 13:47:50;;;;;;;2.35;1.25;;;14.20;61.50;;;;;;5030716;28;20132;-75
2021/12/07 13:50:19;;;;;;;3.35;1.20;;;14.40;61.90;;;;;;5031050;28;20247;-75
2021/12/07 13:52:46;;;;;;;2.70;1.15;;;14.30;61.80;;;;;;5030728;28;20103;-75
2021/12/07 13:55:16;;;;;;;3.65;1.30;;;14.30;61.80;;;;;;5031602;28;20136;-75
2021/12/07 13:57:44;;;;;;;3.50;1.52;;;14.40;61.60;;;;;;5030143;28;20132;-75
2021/12/07 14:00:12;;;;;;;2.22;1.30;;;14.50;61.80;;;;;;5030912;28;20136;-74
2021/12/07 14:02:40;;;;;;;5.63;1.40;;;14.40;61.60;;;;;;5031977;28;20474;-75
2021/12/07 14:05:11;;;;;;;2.83;1.35;;;14.40;61.50;;;;;;5030324;28;20055;-73
2021/12/07 14:07:39;;;;;;;2.55;1.17;;;;;;;;;;5030558;28;20518;-74
2021/12/07 14:10:11;;;;;;;3.25;1.30;;;14.50;61.60;;;;;;5047159;28;20140;-72
2021/12/07 14:12:39;;;;;;;2.38;1.30;;;13.90;61.40;;;;;;5030758;28;20148;-72
2021/12/07 14:15:12;;;;;;;2.97;1.20;;;14.50;61.70;;;;;;5030507;28;20081;-72
2021/12/07 14:17:40;;;;;;;2.67;1.10;;;14.80;55.20;;;;;;5031306;28;20097;-73
2021/12/07 14:20:08;;;;;;;3.03;1.27;;;14.70;61.80;;;;;;5046842;28;20136;-73
2021/12/07 14:22:35;;;;;;;3.55;1.33;;;14.10;61.10;;;;;;5031726;28;20731;-72
2021/12/07 14:25:01;;;;;;;2.47;1.48;;;14.60;61.50;;;;;;5047406;28;20132;-73
2021/12/07 14:27:28;;;;;;;3.88;1.27;;;13.80;61.00;;;;;;5029854;28;20574;-72
2021/12/07 14:29:56;;;;;;;2.45;1.35;;;14.50;54.90;;;;;;5047264;28;20148;-74